Terminal Aerodrome Forecast
Issued by NWS Rapid City, SD

Home | Current Version | Previous Version | Graphics & Text | Print | Product List | Glossary On
Versions: 1 2 3 4 5 6 7 8 9 10 11 12 13 14 15 16 17 18 19 20 21 22 23
109
FTUS43 KUNR 282241 AAA
TAFRAP
TAF AMD
KRAP 282241Z 2823/2918 12007KT P6SM SCT060 BKN100
      TEMPO 2823/2902 VRB20KT 5SM -TSRA BKN060CB
     FM290200 34011KT P6SM BKN060=

USA.gov is the U.S. government's official web portal to all federal, state and local government web resources and services.